首页
METAR-TAF:

METAR-TAF

机场 :

Châteaudun, 法国

纬度: 48-03N, 经度: 001-23E, 海拔: 134米

当前天气观测

该预报发布于10分钟前的19:00 UTC
风速4节,风向北转东北
温度 29°C
湿度 40%
气压 1020 hPa
能见度10公里或以上
1500米以下无云,无积雨云

METAR: LFOC 221900Z AUTO 03004KT CAVOK 29/14 Q1020

时间: 21:10 (19:10 UTC)

预报

该预报发布于5小时和10分钟前的14:00 UTC
预报有效从22日的 15点(UTC)到 23日的 15点(UTC)
风速2节,风向多变
能见度10公里或以上
1500米以下无云,无积雨云

TAF: LFOC 221400Z 2215/2315 VRB02KT CAVOK

超过4000个机场的气象观测和天气预报(METAR&TAF报告)。

可查询的气象台以黄色和红色小点在地图上表示。

将鼠标移到小点上方,可查看气象台名称。

然后点击查看天气观测和预报。

如需切换地图:点击带黑十字的绿色按钮放大地图;点击带横线的绿色按钮缩小地图;或者点击绿色箭头查看邻近地区的地图。


METAR-TAF: